sensor_id;sensor_type;location;lat;lon;timestamp;P1;durP1;ratioP1;P2;durP2;ratioP2
31132;SDS011;17779;50.942;4.026;2023-05-16T00:00:05;19.00;;;4.10;;
31132;SDS011;17779;50.942;4.026;2023-05-16T00:02:33;25.77;;;3.28;;
31132;SDS011;17779;50.942;4.026;2023-05-16T00:05:03;23.20;;;4.25;;
31132;SDS011;17779;50.942;4.026;2023-05-16T00:07:32;19.88;;;3.95;;
31132;SDS011;17779;50.942;4.026;2023-05-16T00:09:58;27.40;;;4.75;;
31132;SDS011;17779;50.942;4.026;2023-05-16T00:12:25;16.38;;;3.53;;
31132;SDS011;17779;50.942;4.026;2023-05-16T00:14:51;20.67;;;3.10;;
31132;SDS011;17779;50.942;4.026;2023-05-16T00:17:17;21.73;;;3.67;;
31132;SDS011;17779;50.942;4.026;2023-05-16T00:19:44;22.83;;;4.10;;
31132;SDS011;17779;50.942;4.026;2023-05-16T00:22:13;28.75;;;3.67;;
31132;SDS011;17779;50.942;4.026;2023-05-16T00:24:39;26.42;;;3.55;;
31132;SDS011;17779;50.942;4.026;2023-05-16T00:29:33;22.38;;;3.78;;
31132;SDS011;17779;50.942;4.026;2023-05-16T00:31:59;24.60;;;4.32;;
31132;SDS011;17779;50.942;4.026;2023-05-16T00:34:24;19.98;;;3.83;;
31132;SDS011;17779;50.942;4.026;2023-05-16T00:36:50;18.73;;;3.83;;
31132;SDS011;17779;50.942;4.026;2023-05-16T00:39:16;27.55;;;3.67;;
31132;SDS011;17779;50.942;4.026;2023-05-16T00:41:42;21.85;;;4.20;;
31132;SDS011;17779;50.942;4.026;2023-05-16T00:44:08;25.00;;;4.38;;
31132;SDS011;17779;50.942;4.026;2023-05-16T00:46:34;31.17;;;4.40;;
31132;SDS011;17779;50.942;4.026;2023-05-16T00:49:00;22.50;;;3.45;;
31132;SDS011;17779;50.942;4.026;2023-05-16T00:51:26;24.30;;;3.50;;
31132;SDS011;17779;50.942;4.026;2023-05-16T00:53:52;29.98;;;5.22;;
31132;SDS011;17779;50.942;4.026;2023-05-16T00:56:21;23.40;;;4.13;;
31132;SDS011;17779;50.942;4.026;2023-05-16T00:58:46;31.75;;;5.35;;
31132;SDS011;17779;50.942;4.026;2023-05-16T01:01:12;28.83;;;4.47;;
31132;SDS011;17779;50.942;4.026;2023-05-16T01:03:38;23.02;;;3.95;;
31132;SDS011;17779;50.942;4.026;2023-05-16T01:06:07;24.27;;;3.85;;
31132;SDS011;17779;50.942;4.026;2023-05-16T01:08:33;26.00;;;4.25;;
31132;SDS011;17779;50.942;4.026;2023-05-16T01:16:25;17.58;;;3.38;;
31132;SDS011;17779;50.942;4.026;2023-05-16T01:18:59;26.52;;;4.63;;
31132;SDS011;17779;50.942;4.026;2023-05-16T01:21:41;26.38;;;4.00;;
31132;SDS011;17779;50.942;4.026;2023-05-16T01:24:17;22.60;;;3.80;;
31132;SDS011;17779;50.942;4.026;2023-05-16T01:27:04;25.13;;;3.70;;
31132;SDS011;17779;50.942;4.026;2023-05-16T01:29:30;20.48;;;4.35;;
31132;SDS011;17779;50.942;4.026;2023-05-16T01:31:56;22.15;;;3.95;;
31132;SDS011;17779;50.942;4.026;2023-05-16T01:34:22;26.88;;;5.18;;
31132;SDS011;17779;50.942;4.026;2023-05-16T01:36:54;20.52;;;4.30;;
31132;SDS011;17779;50.942;4.026;2023-05-16T01:42:24;23.08;;;3.70;;
31132;SDS011;17779;50.942;4.026;2023-05-16T01:47:29;21.98;;;4.10;;
31132;SDS011;17779;50.942;4.026;2023-05-16T01:50:12;14.43;;;3.65;;
31132;SDS011;17779;50.942;4.026;2023-05-16T01:55:09;22.17;;;4.20;;
31132;SDS011;17779;50.942;4.026;2023-05-16T01:57:39;21.08;;;4.35;;
31132;SDS011;17779;50.942;4.026;2023-05-16T02:00:06;25.05;;;4.35;;
31132;SDS011;17779;50.942;4.026;2023-05-16T02:02:33;22.23;;;3.88;;
31132;SDS011;17779;50.942;4.026;2023-05-16T02:04:58;31.13;;;5.13;;
31132;SDS011;17779;50.942;4.026;2023-05-16T02:07:24;18.85;;;4.07;;
31132;SDS011;17779;50.942;4.026;2023-05-16T02:09:51;24.30;;;5.20;;
31132;SDS011;17779;50.942;4.026;2023-05-16T02:12:16;25.52;;;4.97;;
31132;SDS011;17779;50.942;4.026;2023-05-16T02:14:42;24.17;;;4.57;;
31132;SDS011;17779;50.942;4.026;2023-05-16T02:17:08;25.23;;;4.90;;
31132;SDS011;17779;50.942;4.026;2023-05-16T02:19:34;26.10;;;4.57;;
31132;SDS011;17779;50.942;4.026;2023-05-16T02:22:00;21.45;;;3.72;;
31132;SDS011;17779;50.942;4.026;2023-05-16T02:24:26;15.65;;;3.65;;
31132;SDS011;17779;50.942;4.026;2023-05-16T02:26:52;22.42;;;3.83;;
31132;SDS011;17779;50.942;4.026;2023-05-16T02:29:17;23.25;;;4.15;;
31132;SDS011;17779;50.942;4.026;2023-05-16T02:31:43;25.40;;;4.80;;
31132;SDS011;17779;50.942;4.026;2023-05-16T02:34:09;20.40;;;4.00;;
31132;SDS011;17779;50.942;4.026;2023-05-16T02:36:35;24.08;;;4.25;;
31132;SDS011;17779;50.942;4.026;2023-05-16T02:39:01;27.25;;;5.10;;
31132;SDS011;17779;50.942;4.026;2023-05-16T02:41:28;29.73;;;4.88;;
31132;SDS011;17779;50.942;4.026;2023-05-16T02:43:54;22.52;;;4.00;;
31132;SDS011;17779;50.942;4.026;2023-05-16T02:46:30;24.55;;;5.03;;
31132;SDS011;17779;50.942;4.026;2023-05-16T02:48:57;23.98;;;4.65;;
31132;SDS011;17779;50.942;4.026;2023-05-16T02:51:24;17.05;;;4.03;;
31132;SDS011;17779;50.942;4.026;2023-05-16T02:53:51;21.70;;;3.78;;
31132;SDS011;17779;50.942;4.026;2023-05-16T02:56:18;30.33;;;4.53;;
31132;SDS011;17779;50.942;4.026;2023-05-16T02:58:45;20.25;;;4.35;;
31132;SDS011;17779;50.942;4.026;2023-05-16T03:01:12;20.35;;;3.38;;
31132;SDS011;17779;50.942;4.026;2023-05-16T03:03:38;21.38;;;4.90;;
31132;SDS011;17779;50.942;4.026;2023-05-16T03:06:04;22.25;;;3.88;;
31132;SDS011;17779;50.942;4.026;2023-05-16T03:10:56;23.48;;;3.90;;
31132;SDS011;17779;50.942;4.026;2023-05-16T03:13:21;27.08;;;4.70;;
31132;SDS011;17779;50.942;4.026;2023-05-16T03:15:47;24.45;;;4.22;;
31132;SDS011;17779;50.942;4.026;2023-05-16T03:18:13;21.40;;;4.03;;
31132;SDS011;17779;50.942;4.026;2023-05-16T03:20:39;19.48;;;3.78;;
31132;SDS011;17779;50.942;4.026;2023-05-16T03:23:05;16.10;;;3.72;;
31132;SDS011;17779;50.942;4.026;2023-05-16T03:25:32;26.63;;;4.53;;
31132;SDS011;17779;50.942;4.026;2023-05-16T03:28:00;27.23;;;4.47;;
31132;SDS011;17779;50.942;4.026;2023-05-16T03:30:29;15.90;;;4.22;;
31132;SDS011;17779;50.942;4.026;2023-05-16T03:32:55;21.38;;;4.00;;
31132;SDS011;17779;50.942;4.026;2023-05-16T03:35:21;22.10;;;3.75;;
31132;SDS011;17779;50.942;4.026;2023-05-16T03:37:47;26.65;;;4.78;;
31132;SDS011;17779;50.942;4.026;2023-05-16T03:40:15;18.40;;;3.80;;
31132;SDS011;17779;50.942;4.026;2023-05-16T03:42:40;18.85;;;4.05;;
31132;SDS011;17779;50.942;4.026;2023-05-16T03:45:06;13.82;;;3.45;;
31132;SDS011;17779;50.942;4.026;2023-05-16T03:49:59;18.90;;;3.53;;
31132;SDS011;17779;50.942;4.026;2023-05-16T03:52:25;19.08;;;4.25;;
31132;SDS011;17779;50.942;4.026;2023-05-16T03:54:50;22.45;;;3.55;;
31132;SDS011;17779;50.942;4.026;2023-05-16T03:57:16;22.02;;;4.15;;
31132;SDS011;17779;50.942;4.026;2023-05-16T03:59:42;20.85;;;4.30;;
31132;SDS011;17779;50.942;4.026;2023-05-16T04:02:08;26.17;;;5.30;;
31132;SDS011;17779;50.942;4.026;2023-05-16T04:04:34;24.42;;;4.38;;
31132;SDS011;17779;50.942;4.026;2023-05-16T04:07:00;20.70;;;5.30;;
31132;SDS011;17779;50.942;4.026;2023-05-16T04:09:26;27.17;;;4.80;;
31132;SDS011;17779;50.942;4.026;2023-05-16T04:11:52;29.25;;;5.63;;
31132;SDS011;17779;50.942;4.026;2023-05-16T04:14:20;27.77;;;6.82;;
31132;SDS011;17779;50.942;4.026;2023-05-16T04:16:47;28.08;;;6.05;;
31132;SDS011;17779;50.942;4.026;2023-05-16T04:19:13;23.20;;;7.07;;
31132;SDS011;17779;50.942;4.026;2023-05-16T04:21:38;28.58;;;6.68;;
31132;SDS011;17779;50.942;4.026;2023-05-16T04:24:04;35.15;;;8.60;;
31132;SDS011;17779;50.942;4.026;2023-05-16T04:28:57;33.97;;;8.23;;
31132;SDS011;17779;50.942;4.026;2023-05-16T04:31:24;25.70;;;8.32;;
31132;SDS011;17779;50.942;4.026;2023-05-16T04:33:50;31.30;;;8.52;;
31132;SDS011;17779;50.942;4.026;2023-05-16T04:36:16;31.83;;;8.82;;
31132;SDS011;17779;50.942;4.026;2023-05-16T04:38:42;26.50;;;9.02;;
31132;SDS011;17779;50.942;4.026;2023-05-16T04:41:08;29.20;;;8.90;;
31132;SDS011;17779;50.942;4.026;2023-05-16T04:43:33;36.30;;;10.00;;
31132;SDS011;17779;50.942;4.026;2023-05-16T04:45:59;34.55;;;10.15;;
31132;SDS011;17779;50.942;4.026;2023-05-16T04:48:25;32.80;;;8.85;;
31132;SDS011;17779;50.942;4.026;2023-05-16T04:50:51;36.13;;;9.45;;
31132;SDS011;17779;50.942;4.026;2023-05-16T04:53:17;34.75;;;9.60;;
31132;SDS011;17779;50.942;4.026;2023-05-16T04:55:42;28.17;;;9.15;;
31132;SDS011;17779;50.942;4.026;2023-05-16T04:58:08;32.58;;;10.23;;
31132;SDS011;17779;50.942;4.026;2023-05-16T05:00:34;30.08;;;10.30;;
31132;SDS011;17779;50.942;4.026;2023-05-16T05:05:27;34.67;;;10.75;;
31132;SDS011;17779;50.942;4.026;2023-05-16T05:07:54;30.55;;;11.50;;
31132;SDS011;17779;50.942;4.026;2023-05-16T05:10:22;36.13;;;11.73;;
31132;SDS011;17779;50.942;4.026;2023-05-16T05:12:47;26.83;;;9.43;;
31132;SDS011;17779;50.942;4.026;2023-05-16T05:15:15;27.20;;;9.70;;
31132;SDS011;17779;50.942;4.026;2023-05-16T05:17:41;32.63;;;10.07;;
31132;SDS011;17779;50.942;4.026;2023-05-16T05:20:06;30.50;;;9.82;;
31132;SDS011;17779;50.942;4.026;2023-05-16T05:22:32;30.67;;;8.93;;
31132;SDS011;17779;50.942;4.026;2023-05-16T05:24:58;31.23;;;9.30;;
31132;SDS011;17779;50.942;4.026;2023-05-16T05:27:24;24.48;;;9.63;;
31132;SDS011;17779;50.942;4.026;2023-05-16T05:29:51;28.45;;;9.60;;
31132;SDS011;17779;50.942;4.026;2023-05-16T05:32:17;25.08;;;8.57;;
31132;SDS011;17779;50.942;4.026;2023-05-16T05:34:42;31.80;;;9.65;;
31132;SDS011;17779;50.942;4.026;2023-05-16T05:37:08;29.63;;;8.82;;
31132;SDS011;17779;50.942;4.026;2023-05-16T05:39:34;27.15;;;9.05;;
31132;SDS011;17779;50.942;4.026;2023-05-16T05:42:00;27.80;;;8.55;;
31132;SDS011;17779;50.942;4.026;2023-05-16T05:44:28;34.30;;;8.52;;
31132;SDS011;17779;50.942;4.026;2023-05-16T05:46:54;28.23;;;8.80;;
31132;SDS011;17779;50.942;4.026;2023-05-16T05:49:21;31.92;;;7.50;;
31132;SDS011;17779;50.942;4.026;2023-05-16T05:51:51;24.88;;;7.18;;
31132;SDS011;17779;50.942;4.026;2023-05-16T05:54:20;22.02;;;7.28;;
31132;SDS011;17779;50.942;4.026;2023-05-16T05:56:46;27.73;;;8.02;;
31132;SDS011;17779;50.942;4.026;2023-05-16T05:59:12;22.65;;;6.95;;
31132;SDS011;17779;50.942;4.026;2023-05-16T06:01:38;23.67;;;6.88;;
31132;SDS011;17779;50.942;4.026;2023-05-16T06:04:03;19.92;;;6.55;;
31132;SDS011;17779;50.942;4.026;2023-05-16T06:06:32;23.15;;;6.57;;
31132;SDS011;17779;50.942;4.026;2023-05-16T06:08:58;19.45;;;5.95;;
31132;SDS011;17779;50.942;4.026;2023-05-16T06:11:24;22.80;;;6.18;;
31132;SDS011;17779;50.942;4.026;2023-05-16T06:19:00;21.42;;;4.28;;
31132;SDS011;17779;50.942;4.026;2023-05-16T06:21:26;18.17;;;4.80;;
31132;SDS011;17779;50.942;4.026;2023-05-16T06:23:52;25.23;;;5.20;;
31132;SDS011;17779;50.942;4.026;2023-05-16T06:26:17;30.13;;;5.28;;
31132;SDS011;17779;50.942;4.026;2023-05-16T06:28:44;16.42;;;5.38;;
31132;SDS011;17779;50.942;4.026;2023-05-16T06:31:10;23.65;;;4.55;;
31132;SDS011;17779;50.942;4.026;2023-05-16T06:36:02;17.50;;;4.07;;
31132;SDS011;17779;50.942;4.026;2023-05-16T06:38:27;15.32;;;2.25;;
31132;SDS011;17779;50.942;4.026;2023-05-16T06:40:53;13.90;;;2.63;;
31132;SDS011;17779;50.942;4.026;2023-05-16T06:43:19;16.00;;;2.70;;
31132;SDS011;17779;50.942;4.026;2023-05-16T06:45:45;15.43;;;2.67;;
31132;SDS011;17779;50.942;4.026;2023-05-16T06:48:12;17.35;;;3.33;;
31132;SDS011;17779;50.942;4.026;2023-05-16T06:50:41;20.92;;;3.00;;
31132;SDS011;17779;50.942;4.026;2023-05-16T06:53:07;18.63;;;3.03;;
31132;SDS011;17779;50.942;4.026;2023-05-16T06:55:33;18.38;;;2.50;;
31132;SDS011;17779;50.942;4.026;2023-05-16T06:57:59;16.10;;;2.60;;
31132;SDS011;17779;50.942;4.026;2023-05-16T07:00:25;19.77;;;3.05;;
31132;SDS011;17779;50.942;4.026;2023-05-16T07:02:51;12.25;;;2.80;;
31132;SDS011;17779;50.942;4.026;2023-05-16T07:05:17;11.32;;;2.15;;
31132;SDS011;17779;50.942;4.026;2023-05-16T07:07:43;14.80;;;2.13;;
31132;SDS011;17779;50.942;4.026;2023-05-16T07:12:35;12.25;;;2.28;;
31132;SDS011;17779;50.942;4.026;2023-05-16T07:15:03;12.23;;;1.92;;
31132;SDS011;17779;50.942;4.026;2023-05-16T07:17:30;17.00;;;2.47;;
31132;SDS011;17779;50.942;4.026;2023-05-16T07:19:56;15.38;;;2.35;;
31132;SDS011;17779;50.942;4.026;2023-05-16T07:22:21;13.18;;;2.13;;
31132;SDS011;17779;50.942;4.026;2023-05-16T07:24:47;11.32;;;2.40;;
31132;SDS011;17779;50.942;4.026;2023-05-16T07:27:13;14.40;;;2.28;;
31132;SDS011;17779;50.942;4.026;2023-05-16T07:29:39;7.15;;;1.80;;
31132;SDS011;17779;50.942;4.026;2023-05-16T07:32:05;10.50;;;1.75;;
31132;SDS011;17779;50.942;4.026;2023-05-16T07:34:31;11.13;;;2.65;;
31132;SDS011;17779;50.942;4.026;2023-05-16T07:36:57;10.13;;;2.08;;
31132;SDS011;17779;50.942;4.026;2023-05-16T07:39:23;11.32;;;2.10;;
31132;SDS011;17779;50.942;4.026;2023-05-16T07:41:49;9.43;;;1.58;;
31132;SDS011;17779;50.942;4.026;2023-05-16T07:44:15;11.25;;;2.42;;
31132;SDS011;17779;50.942;4.026;2023-05-16T07:46:41;12.90;;;2.17;;
31132;SDS011;17779;50.942;4.026;2023-05-16T07:49:09;9.82;;;1.98;;
31132;SDS011;17779;50.942;4.026;2023-05-16T07:54:00;10.18;;;1.95;;
31132;SDS011;17779;50.942;4.026;2023-05-16T07:56:26;12.52;;;2.20;;
31132;SDS011;17779;50.942;4.026;2023-05-16T07:58:52;11.15;;;1.90;;
31132;SDS011;17779;50.942;4.026;2023-05-16T08:01:18;9.13;;;2.40;;
31132;SDS011;17779;50.942;4.026;2023-05-16T08:03:44;8.63;;;1.77;;
31132;SDS011;17779;50.942;4.026;2023-05-16T08:06:10;10.57;;;2.33;;
31132;SDS011;17779;50.942;4.026;2023-05-16T08:08:36;6.55;;;1.60;;
31132;SDS011;17779;50.942;4.026;2023-05-16T08:11:03;11.68;;;2.90;;
31132;SDS011;17779;50.942;4.026;2023-05-16T08:13:29;8.77;;;2.33;;
31132;SDS011;17779;50.942;4.026;2023-05-16T08:15:56;5.75;;;1.48;;
31132;SDS011;17779;50.942;4.026;2023-05-16T08:18:21;6.20;;;1.52;;
31132;SDS011;17779;50.942;4.026;2023-05-16T08:20:47;6.20;;;1.45;;
31132;SDS011;17779;50.942;4.026;2023-05-16T08:23:13;7.20;;;1.70;;
31132;SDS011;17779;50.942;4.026;2023-05-16T08:25:39;11.25;;;2.38;;
31132;SDS011;17779;50.942;4.026;2023-05-16T08:28:06;8.48;;;1.48;;
31132;SDS011;17779;50.942;4.026;2023-05-16T08:30:31;9.32;;;2.03;;
31132;SDS011;17779;50.942;4.026;2023-05-16T08:32:57;6.47;;;1.55;;
31132;SDS011;17779;50.942;4.026;2023-05-16T08:35:24;11.23;;;2.50;;
31132;SDS011;17779;50.942;4.026;2023-05-16T08:37:50;8.75;;;1.75;;
31132;SDS011;17779;50.942;4.026;2023-05-16T08:40:15;7.10;;;1.38;;
31132;SDS011;17779;50.942;4.026;2023-05-16T08:42:41;7.90;;;1.92;;
31132;SDS011;17779;50.942;4.026;2023-05-16T08:45:07;6.05;;;1.73;;
31132;SDS011;17779;50.942;4.026;2023-05-16T08:52:32;9.93;;;1.52;;
31132;SDS011;17779;50.942;4.026;2023-05-16T08:55:01;7.88;;;2.20;;
31132;SDS011;17779;50.942;4.026;2023-05-16T08:57:35;6.85;;;1.73;;
31132;SDS011;17779;50.942;4.026;2023-05-16T09:00:02;11.77;;;1.80;;
31132;SDS011;17779;50.942;4.026;2023-05-16T09:02:35;12.38;;;1.75;;
31132;SDS011;17779;50.942;4.026;2023-05-16T09:05:03;11.27;;;2.00;;
31132;SDS011;17779;50.942;4.026;2023-05-16T09:07:30;8.30;;;1.92;;
31132;SDS011;17779;50.942;4.026;2023-05-16T09:09:55;8.57;;;1.70;;
31132;SDS011;17779;50.942;4.026;2023-05-16T09:12:21;7.60;;;1.92;;
31132;SDS011;17779;50.942;4.026;2023-05-16T09:14:47;6.10;;;1.40;;
31132;SDS011;17779;50.942;4.026;2023-05-16T09:17:13;6.60;;;1.60;;
31132;SDS011;17779;50.942;4.026;2023-05-16T10:36:55;5.38;;;1.48;;
31132;SDS011;17779;50.942;4.026;2023-05-16T10:39:22;13.07;;;1.58;;
31132;SDS011;17779;50.942;4.026;2023-05-16T10:41:48;7.03;;;1.63;;
31132;SDS011;17779;50.942;4.026;2023-05-16T10:44:14;9.63;;;1.73;;
31132;SDS011;17779;50.942;4.026;2023-05-16T10:46:41;7.82;;;1.90;;
31132;SDS011;17779;50.942;4.026;2023-05-16T10:49:23;7.88;;;1.90;;
31132;SDS011;17779;50.942;4.026;2023-05-16T10:52:04;10.07;;;1.83;;
31132;SDS011;17779;50.942;4.026;2023-05-16T10:54:48;7.28;;;1.75;;
31132;SDS011;17779;50.942;4.026;2023-05-16T10:57:17;8.10;;;1.55;;
31132;SDS011;17779;50.942;4.026;2023-05-16T10:59:46;6.22;;;1.60;;
31132;SDS011;17779;50.942;4.026;2023-05-16T11:02:20;6.05;;;1.40;;
31132;SDS011;17779;50.942;4.026;2023-05-16T11:04:48;8.38;;;1.80;;
31132;SDS011;17779;50.942;4.026;2023-05-16T11:07:18;5.43;;;1.10;;
31132;SDS011;17779;50.942;4.026;2023-05-16T11:09:49;8.80;;;1.88;;
31132;SDS011;17779;50.942;4.026;2023-05-16T11:12:34;5.07;;;1.48;;
31132;SDS011;17779;50.942;4.026;2023-05-16T11:15:17;7.60;;;1.60;;
31132;SDS011;17779;50.942;4.026;2023-05-16T11:17:44;8.02;;;1.65;;
31132;SDS011;17779;50.942;4.026;2023-05-16T11:26:04;10.88;;;1.80;;
31132;SDS011;17779;50.942;4.026;2023-05-16T11:28:29;7.70;;;1.83;;
31132;SDS011;17779;50.942;4.026;2023-05-16T11:30:56;8.75;;;1.73;;
31132;SDS011;17779;50.942;4.026;2023-05-16T11:33:23;11.02;;;2.10;;
31132;SDS011;17779;50.942;4.026;2023-05-16T11:36:05;8.63;;;1.77;;
31132;SDS011;17779;50.942;4.026;2023-05-16T11:38:32;5.95;;;1.58;;
31132;SDS011;17779;50.942;4.026;2023-05-16T11:41:03;7.82;;;1.45;;
31132;SDS011;17779;50.942;4.026;2023-05-16T11:43:51;7.00;;;1.70;;
31132;SDS011;17779;50.942;4.026;2023-05-16T11:46:16;8.30;;;1.55;;
31132;SDS011;17779;50.942;4.026;2023-05-16T11:48:42;7.85;;;1.95;;
31132;SDS011;17779;50.942;4.026;2023-05-16T11:51:11;7.63;;;1.73;;
31132;SDS011;17779;50.942;4.026;2023-05-16T11:53:38;9.35;;;2.08;;
31132;SDS011;17779;50.942;4.026;2023-05-16T12:00:57;6.53;;;1.45;;
31132;SDS011;17779;50.942;4.026;2023-05-16T12:03:23;7.63;;;1.42;;
31132;SDS011;17779;50.942;4.026;2023-05-16T12:05:50;7.35;;;1.67;;
31132;SDS011;17779;50.942;4.026;2023-05-16T12:08:17;6.00;;;1.40;;
31132;SDS011;17779;50.942;4.026;2023-05-16T12:10:46;4.93;;;1.20;;
31132;SDS011;17779;50.942;4.026;2023-05-16T12:13:13;6.07;;;1.40;;
31132;SDS011;17779;50.942;4.026;2023-05-16T12:15:39;7.35;;;1.80;;
31132;SDS011;17779;50.942;4.026;2023-05-16T12:18:06;5.57;;;1.20;;
31132;SDS011;17779;50.942;4.026;2023-05-16T12:20:33;6.55;;;1.55;;
31132;SDS011;17779;50.942;4.026;2023-05-16T12:22:59;8.38;;;1.92;;
31132;SDS011;17779;50.942;4.026;2023-05-16T12:25:26;7.72;;;2.05;;
31132;SDS011;17779;50.942;4.026;2023-05-16T12:27:56;5.10;;;1.40;;
31132;SDS011;17779;50.942;4.026;2023-05-16T12:30:24;7.78;;;2.15;;
31132;SDS011;17779;50.942;4.026;2023-05-16T12:32:58;8.90;;;1.65;;
31132;SDS011;17779;50.942;4.026;2023-05-16T12:35:32;7.38;;;1.75;;
31132;SDS011;17779;50.942;4.026;2023-05-16T12:37:59;7.95;;;1.88;;
31132;SDS011;17779;50.942;4.026;2023-05-16T12:40:29;10.73;;;1.85;;
31132;SDS011;17779;50.942;4.026;2023-05-16T12:42:55;4.97;;;1.40;;
31132;SDS011;17779;50.942;4.026;2023-05-16T12:45:22;10.00;;;1.63;;
31132;SDS011;17779;50.942;4.026;2023-05-16T12:47:48;6.93;;;1.65;;
31132;SDS011;17779;50.942;4.026;2023-05-16T12:50:15;5.13;;;1.30;;
31132;SDS011;17779;50.942;4.026;2023-05-16T12:52:50;6.18;;;1.92;;
31132;SDS011;17779;50.942;4.026;2023-05-16T12:55:19;8.75;;;2.08;;
31132;SDS011;17779;50.942;4.026;2023-05-16T12:57:45;7.82;;;1.60;;
31132;SDS011;17779;50.942;4.026;2023-05-16T13:00:12;9.52;;;1.75;;
31132;SDS011;17779;50.942;4.026;2023-05-16T13:02:40;6.38;;;1.63;;
31132;SDS011;17779;50.942;4.026;2023-05-16T13:05:06;7.80;;;2.45;;
31132;SDS011;17779;50.942;4.026;2023-05-16T13:10:01;8.63;;;2.05;;
31132;SDS011;17779;50.942;4.026;2023-05-16T13:12:28;6.47;;;1.45;;
31132;SDS011;17779;50.942;4.026;2023-05-16T13:14:54;7.45;;;2.13;;
31132;SDS011;17779;50.942;4.026;2023-05-16T13:17:20;5.68;;;1.73;;
31132;SDS011;17779;50.942;4.026;2023-05-16T13:19:48;6.72;;;1.85;;
31132;SDS011;17779;50.942;4.026;2023-05-16T13:24:39;8.68;;;1.67;;
31132;SDS011;17779;50.942;4.026;2023-05-16T13:27:06;7.60;;;1.55;;
31132;SDS011;17779;50.942;4.026;2023-05-16T13:29:31;8.27;;;2.10;;
31132;SDS011;17779;50.942;4.026;2023-05-16T13:31:57;9.77;;;1.80;;
31132;SDS011;17779;50.942;4.026;2023-05-16T13:34:23;7.60;;;1.60;;
31132;SDS011;17779;50.942;4.026;2023-05-16T13:36:49;7.80;;;1.85;;
31132;SDS011;17779;50.942;4.026;2023-05-16T13:39:15;5.38;;;1.20;;
31132;SDS011;17779;50.942;4.026;2023-05-16T13:41:42;6.03;;;1.27;;
31132;SDS011;17779;50.942;4.026;2023-05-16T13:44:08;5.88;;;1.48;;
31132;SDS011;17779;50.942;4.026;2023-05-16T13:46:34;6.60;;;1.80;;
31132;SDS011;17779;50.942;4.026;2023-05-16T13:49:00;9.32;;;1.75;;
31132;SDS011;17779;50.942;4.026;2023-05-16T13:51:26;6.80;;;1.52;;
31132;SDS011;17779;50.942;4.026;2023-05-16T13:53:51;6.40;;;1.75;;
31132;SDS011;17779;50.942;4.026;2023-05-16T13:56:17;5.95;;;1.80;;
31132;SDS011;17779;50.942;4.026;2023-05-16T13:58:43;8.05;;;1.55;;
31132;SDS011;17779;50.942;4.026;2023-05-16T14:01:09;7.13;;;1.92;;
31132;SDS011;17779;50.942;4.026;2023-05-16T14:03:36;4.40;;;1.50;;
31132;SDS011;17779;50.942;4.026;2023-05-16T14:06:02;4.97;;;1.63;;
31132;SDS011;17779;50.942;4.026;2023-05-16T14:08:28;8.82;;;1.73;;
31132;SDS011;17779;50.942;4.026;2023-05-16T14:10:54;6.43;;;2.10;;
31132;SDS011;17779;50.942;4.026;2023-05-16T14:13:20;6.45;;;1.65;;
31132;SDS011;17779;50.942;4.026;2023-05-16T14:15:46;11.07;;;2.00;;
31132;SDS011;17779;50.942;4.026;2023-05-16T14:18:12;8.02;;;2.63;;
31132;SDS011;17779;50.942;4.026;2023-05-16T14:20:38;8.48;;;2.22;;
31132;SDS011;17779;50.942;4.026;2023-05-16T14:23:05;12.60;;;3.10;;
31132;SDS011;17779;50.942;4.026;2023-05-16T14:25:31;12.95;;;1.88;;
31132;SDS011;17779;50.942;4.026;2023-05-16T14:27:57;10.40;;;2.30;;
31132;SDS011;17779;50.942;4.026;2023-05-16T14:30:23;5.63;;;1.52;;
31132;SDS011;17779;50.942;4.026;2023-05-16T14:32:49;6.25;;;2.30;;
31132;SDS011;17779;50.942;4.026;2023-05-16T14:35:15;7.25;;;1.60;;
31132;SDS011;17779;50.942;4.026;2023-05-16T14:37:41;7.60;;;2.10;;
31132;SDS011;17779;50.942;4.026;2023-05-16T14:40:07;10.80;;;2.60;;
31132;SDS011;17779;50.942;4.026;2023-05-16T14:42:33;7.10;;;1.75;;
31132;SDS011;17779;50.942;4.026;2023-05-16T14:45:00;4.50;;;1.27;;
31132;SDS011;17779;50.942;4.026;2023-05-16T14:47:27;8.00;;;1.60;;
31132;SDS011;17779;50.942;4.026;2023-05-16T14:49:55;8.52;;;1.35;;
31132;SDS011;17779;50.942;4.026;2023-05-16T14:52:21;6.68;;;1.45;;
31132;SDS011;17779;50.942;4.026;2023-05-16T14:54:46;6.85;;;1.38;;
31132;SDS011;17779;50.942;4.026;2023-05-16T14:57:12;7.38;;;1.40;;
31132;SDS011;17779;50.942;4.026;2023-05-16T14:59:38;10.45;;;2.30;;
31132;SDS011;17779;50.942;4.026;2023-05-16T15:02:04;7.00;;;1.50;;
31132;SDS011;17779;50.942;4.026;2023-05-16T15:04:31;6.38;;;1.48;;
31132;SDS011;17779;50.942;4.026;2023-05-16T15:09:22;9.35;;;1.70;;
31132;SDS011;17779;50.942;4.026;2023-05-16T15:11:48;12.80;;;1.65;;
31132;SDS011;17779;50.942;4.026;2023-05-16T15:14:14;7.78;;;1.60;;
31132;SDS011;17779;50.942;4.026;2023-05-16T15:16:40;5.97;;;1.40;;
31132;SDS011;17779;50.942;4.026;2023-05-16T15:21:33;9.13;;;2.00;;
31132;SDS011;17779;50.942;4.026;2023-05-16T15:23:59;6.78;;;1.67;;
31132;SDS011;17779;50.942;4.026;2023-05-16T15:26:24;3.78;;;1.20;;
31132;SDS011;17779;50.942;4.026;2023-05-16T15:28:51;6.70;;;1.70;;
31132;SDS011;17779;50.942;4.026;2023-05-16T15:31:19;4.20;;;1.30;;
31132;SDS011;17779;50.942;4.026;2023-05-16T15:33:45;6.95;;;1.70;;
31132;SDS011;17779;50.942;4.026;2023-05-16T15:38:38;6.95;;;1.77;;
31132;SDS011;17779;50.942;4.026;2023-05-16T15:41:08;5.15;;;1.55;;
31132;SDS011;17779;50.942;4.026;2023-05-16T15:46:00;4.32;;;1.60;;
31132;SDS011;17779;50.942;4.026;2023-05-16T15:48:26;5.40;;;1.35;;
31132;SDS011;17779;50.942;4.026;2023-05-16T15:50:51;4.03;;;1.40;;
31132;SDS011;17779;50.942;4.026;2023-05-16T15:53:17;6.90;;;1.50;;
31132;SDS011;17779;50.942;4.026;2023-05-16T15:55:43;6.03;;;1.48;;
31132;SDS011;17779;50.942;4.026;2023-05-16T15:58:12;5.47;;;1.65;;
31132;SDS011;17779;50.942;4.026;2023-05-16T16:00:38;7.88;;;1.65;;
31132;SDS011;17779;50.942;4.026;2023-05-16T16:03:05;7.45;;;1.48;;
31132;SDS011;17779;50.942;4.026;2023-05-16T16:05:31;5.05;;;1.40;;
31132;SDS011;17779;50.942;4.026;2023-05-16T16:07:58;7.88;;;1.35;;
31132;SDS011;17779;50.942;4.026;2023-05-16T16:10:23;9.15;;;1.42;;
31132;SDS011;17779;50.942;4.026;2023-05-16T16:12:58;4.82;;;1.00;;
31132;SDS011;17779;50.942;4.026;2023-05-16T16:15:25;5.38;;;1.25;;
31132;SDS011;17779;50.942;4.026;2023-05-16T16:17:51;9.00;;;1.70;;
31132;SDS011;17779;50.942;4.026;2023-05-16T16:20:18;8.10;;;1.27;;
31132;SDS011;17779;50.942;4.026;2023-05-16T16:22:44;5.15;;;1.42;;
31132;SDS011;17779;50.942;4.026;2023-05-16T16:25:09;7.78;;;1.95;;
31132;SDS011;17779;50.942;4.026;2023-05-16T16:27:36;7.07;;;1.58;;
31132;SDS011;17779;50.942;4.026;2023-05-16T16:30:02;4.88;;;1.17;;
31132;SDS011;17779;50.942;4.026;2023-05-16T16:32:28;4.28;;;1.40;;
31132;SDS011;17779;50.942;4.026;2023-05-16T16:34:54;4.65;;;1.55;;
31132;SDS011;17779;50.942;4.026;2023-05-16T16:37:20;6.90;;;1.20;;
31132;SDS011;17779;50.942;4.026;2023-05-16T16:39:46;3.72;;;1.10;;
31132;SDS011;17779;50.942;4.026;2023-05-16T16:42:12;7.30;;;1.33;;
31132;SDS011;17779;50.942;4.026;2023-05-16T16:44:38;7.85;;;1.38;;
31132;SDS011;17779;50.942;4.026;2023-05-16T16:47:04;4.22;;;1.40;;
31132;SDS011;17779;50.942;4.026;2023-05-16T16:49:30;5.82;;;1.20;;
31132;SDS011;17779;50.942;4.026;2023-05-16T16:51:56;4.15;;;1.50;;
31132;SDS011;17779;50.942;4.026;2023-05-16T16:54:22;4.70;;;1.35;;
31132;SDS011;17779;50.942;4.026;2023-05-16T16:56:48;7.00;;;1.25;;
31132;SDS011;17779;50.942;4.026;2023-05-16T16:59:16;7.90;;;1.55;;
31132;SDS011;17779;50.942;4.026;2023-05-16T17:01:42;7.55;;;1.42;;
31132;SDS011;17779;50.942;4.026;2023-05-16T17:04:09;4.88;;;1.35;;